Time;durP1;ratioP1;P1;durP2;ratioP2;P2;SDS_P1;SDS_P2;PMS_P1;PMS_P2;Temp;Humidity;BMP_temperature;BMP_pressure;BME280_temperature;BME280_humidity;BME280_pressure;Samples;Min_cycle;Max_cycle;Signal;HPM_P1;HPM_P2
2023/09/10 00:00:35;;;;;;;;;;;23.90;99.90;;;;;;5093285;28;19909;-71
2023/09/10 00:03:01;;;;;;;;;;;24.00;99.90;;;;;;5093974;28;19908;-72
2023/09/10 00:05:26;;;;;;;;;;;24.00;99.90;;;;;;5093444;28;20375;-71
2023/09/10 00:07:52;;;;;;;;;;;24.00;99.90;;;;;;5075310;28;19912;-72
2023/09/10 00:10:18;;;;;;;;;;;24.00;99.90;;;;;;5093918;28;19961;-71
2023/09/10 00:12:44;;;;;;;;;;;24.00;99.90;;;;;;5093341;28;19915;-71
2023/09/10 00:15:10;;;;;;;;;;;24.00;99.90;;;;;;5093096;28;19915;-72
2023/09/10 00:17:36;;;;;;;;;;;23.90;99.90;;;;;;5075168;28;19908;-72
2023/09/10 00:20:02;;;;;;;;;;;23.80;99.90;;;;;;5093306;28;19961;-73
2023/09/10 00:22:28;;;;;;;;;;;23.90;99.90;;;;;;5093290;28;19915;-72
2023/09/10 00:24:53;;;;;;;;;;;23.90;99.90;;;;;;5093780;28;19955;-72
2023/09/10 00:27:19;;;;;;;;;;;23.90;99.90;;;;;;5093249;28;19912;-72
2023/09/10 00:29:45;;;;;;;;;;;23.90;99.90;;;;;;5093286;28;19908;-72
2023/09/10 00:32:11;;;;;;;;;;;23.90;99.90;;;;;;5093693;28;19908;-71
2023/09/10 00:34:36;;;;;;;;;;;23.90;99.90;;;;;;5093101;28;19909;-71
2023/09/10 00:37:02;;;;;;;;;;;23.90;99.90;;;;;;5093573;28;19920;-71
2023/09/10 00:39:28;;;;;;;;;;;23.90;99.90;;;;;;5093093;28;20009;-70
2023/09/10 00:41:54;;;;;;;;;;;23.80;99.90;;;;;;5074956;28;20060;-71
2023/09/10 00:44:20;;;;;;;;;;;23.80;99.90;;;;;;5092821;28;20335;-71
2023/09/10 00:46:46;;;;;;;;;;;23.80;99.90;;;;;;5093088;28;19915;-71
2023/09/10 00:49:12;;;;;;;;;;;23.70;99.90;;;;;;5095777;28;19908;-71
2023/09/10 00:51:38;;;;;;;;;;;23.70;99.90;;;;;;5096657;28;19931;-70
2023/09/10 00:54:05;;;;;;;;;;;23.70;99.90;;;;;;5097073;28;19915;-72
2023/09/10 00:56:31;;;;;;;;;;;23.60;99.90;;;;;;5096377;28;19923;-71
2023/09/10 00:58:57;;;;;;;;;;;23.60;99.90;;;;;;5096257;28;19995;-71
2023/09/10 01:01:23;;;;;;;;;;;23.60;99.90;;;;;;5078595;28;20310;-71
2023/09/10 01:03:48;;;;;;;;;;;23.60;99.90;;;;;;5096702;28;20363;-72
2023/09/10 01:06:14;;;;;;;;;;;23.70;99.90;;;;;;5096440;28;19911;-70
2023/09/10 01:08:40;;;;;;;;;;;23.60;99.90;;;;;;5096860;28;19908;-71
2023/09/10 01:11:32;;;;;;;;;;;23.60;99.90;;;;;;5096311;28;20004;-72
2023/09/10 01:14:06;;;;;;;;;;;23.60;99.90;;;;;;5093022;28;19968;-71
2023/09/10 01:16:44;;;;;;;;;;;23.60;99.90;;;;;;5077994;28;19916;-71
2023/09/10 01:19:28;;;;;;;;;;;23.60;99.90;;;;;;5096395;28;19912;-71
2023/09/10 01:21:57;;;;;;;;;;;23.50;99.90;;;;;;5096077;28;19953;-71
2023/09/10 01:24:43;;;;;;;;;;;23.50;99.90;;;;;;5077865;28;19957;-71
2023/09/10 01:27:08;;;;;;;;;;;23.50;99.90;;;;;;5095356;28;19981;-72
2023/09/10 01:29:34;;;;;;;;;;;23.50;99.90;;;;;;5096152;28;20327;-71
2023/09/10 01:32:01;;;;;;;;;;;23.50;99.90;;;;;;5096426;28;20013;-71
2023/09/10 01:34:30;;;;;;;;;;;23.50;99.90;;;;;;5095849;28;19992;-71
2023/09/10 01:36:59;;;;;;;;;;;23.40;99.90;;;;;;5096058;28;19916;-71
2023/09/10 01:39:37;;;;;;;;;;;23.40;99.90;;;;;;5095515;28;19967;-72
2023/09/10 01:42:06;;;;;;;;;;;23.30;99.90;;;;;;5096233;28;19918;-71
2023/09/10 01:44:35;;;;;;;;;;;23.30;99.90;;;;;;5095438;28;20034;-71
2023/09/10 01:47:02;;;;;;;;;;;23.40;99.90;;;;;;5096173;28;19915;-72
2023/09/10 01:49:28;;;;;;;;;;;23.40;99.90;;;;;;5077412;28;19915;-71
2023/09/10 01:51:54;;;;;;;;;;;23.40;99.90;;;;;;5095546;28;20364;-71
2023/09/10 01:54:20;;;;;;;;;;;23.50;99.90;;;;;;5095429;28;20011;-71
2023/09/10 01:56:45;;;;;;;;;;;23.60;99.90;;;;;;5095330;28;19923;-71
2023/09/10 01:59:11;;;;;;;;;;;23.60;99.90;;;;;;5095069;28;20356;-71
2023/09/10 02:01:37;;;;;;;;;;;23.70;99.90;;;;;;5095786;28;19917;-70
2023/09/10 02:04:03;;;;;;;;;;;23.70;99.90;;;;;;5095281;28;20017;-70
2023/09/10 02:06:29;;;;;;;;;;;23.70;99.90;;;;;;5095731;28;19929;-72
2023/09/10 02:08:55;;;;;;;;;;;23.70;99.90;;;;;;5095158;28;19908;-70
2023/09/10 02:11:21;;;;;;;;;;;23.70;99.90;;;;;;5095499;28;19909;-71
2023/09/10 02:13:46;;;;;;;;;;;23.60;99.90;;;;;;5095571;28;19908;-70
2023/09/10 02:16:12;;;;;;;;;;;23.60;99.90;;;;;;5076556;28;20406;-71
2023/09/10 02:18:38;;;;;;;;;;;23.60;99.90;;;;;;5094937;28;20045;-71
2023/09/10 02:21:09;;;;;;;;;;;23.50;99.90;;;;;;5094946;28;20049;-71
2023/09/10 02:23:35;;;;;;;;;;;23.50;99.90;;;;;;5094909;28;19973;-70
2023/09/10 02:26:01;;;;;;;;;;;23.50;99.90;;;;;;5095071;28;20353;-71
2023/09/10 02:28:27;;;;;;;;;;;23.40;99.90;;;;;;5095040;28;19915;-71
2023/09/10 02:30:53;;;;;;;;;;;23.50;99.90;;;;;;5094547;28;19915;-71
2023/09/10 02:33:19;;;;;;;;;;;23.50;99.90;;;;;;5094764;28;20279;-71
2023/09/10 02:35:45;;;;;;;;;;;23.40;99.90;;;;;;5094616;28;19916;-70
2023/09/10 02:38:10;;;;;;;;;;;23.50;99.90;;;;;;5094643;28;20326;-71
2023/09/10 02:40:36;;;;;;;;;;;23.50;99.90;;;;;;5095076;28;19915;-71
2023/09/10 02:43:02;;;;;;;;;;;23.50;99.90;;;;;;5076322;28;20395;-71
2023/09/10 02:45:28;;;;;;;;;;;23.50;99.90;;;;;;5094375;28;19908;-71
2023/09/10 02:47:54;;;;;;;;;;;23.40;99.90;;;;;;5094462;28;19962;-71
2023/09/10 02:50:19;;;;;;;;;;;23.50;99.90;;;;;;5094394;28;19919;-71
2023/09/10 02:52:46;;;;;;;;;;;23.50;99.90;;;;;;5094425;28;19954;-73
2023/09/10 02:55:11;;;;;;;;;;;23.50;99.90;;;;;;5094466;28;20003;-71
2023/09/10 02:57:37;;;;;;;;;;;23.40;99.90;;;;;;5094313;28;19996;-71
2023/09/10 03:00:05;;;;;;;;;;;23.50;99.90;;;;;;5094166;28;19912;-70
2023/09/10 03:02:31;;;;;;;;;;;23.40;99.90;;;;;;5075990;28;19908;-71
2023/09/10 03:04:57;;;;;;;;;;;23.40;99.90;;;;;;5094679;28;19915;-72
2023/09/10 03:07:22;;;;;;;;;;;23.40;99.90;;;;;;5094141;28;19915;-70
2023/09/10 03:09:51;;;;;;;;;;;23.50;99.90;;;;;;5094835;28;20369;-71
2023/09/10 03:12:20;;;;;;;;;;;23.50;99.90;;;;;;5093780;28;19908;-70
2023/09/10 03:14:46;;;;;;;;;;;23.40;99.90;;;;;;5094120;28;19924;-71
2023/09/10 03:17:12;;;;;;;;;;;23.40;99.90;;;;;;5093954;28;19923;-71
2023/09/10 03:19:38;;;;;;;;;;;23.40;99.90;;;;;;5093410;28;19953;-72
2023/09/10 03:22:04;;;;;;;;;;;23.40;99.90;;;;;;5093917;28;19912;-71
2023/09/10 03:24:33;;;;;;;;;;;23.40;99.90;;;;;;5075777;28;19934;-70
2023/09/10 03:26:59;;;;;;;;;;;23.40;99.90;;;;;;5094043;28;20347;-71
2023/09/10 03:29:24;;;;;;;;;;;23.40;99.90;;;;;;5093604;28;19908;-71
2023/09/10 03:31:50;;;;;;;;;;;23.40;99.90;;;;;;5094266;28;19908;-71
2023/09/10 03:34:16;;;;;;;;;;;23.40;99.90;;;;;;5093782;28;19950;-72
2023/09/10 03:36:42;;;;;;;;;;;23.40;99.90;;;;;;5093652;28;19971;-71
2023/09/10 03:39:08;;;;;;;;;;;23.40;99.90;;;;;;5075348;28;19920;-71
2023/09/10 03:41:33;;;;;;;;;;;23.40;99.90;;;;;;5094153;28;19961;-70
2023/09/10 03:43:59;;;;;;;;;;;23.30;99.90;;;;;;5093503;28;19912;-71
2023/09/10 03:46:25;;;;;;;;;;;23.30;99.90;;;;;;5075339;28;19909;-70
2023/09/10 03:48:51;;;;;;;;;;;23.30;99.90;;;;;;5075444;28;19914;-71
2023/09/10 03:51:17;;;;;;;;;;;23.40;99.90;;;;;;5093585;28;19908;-70
2023/09/10 03:53:42;;;;;;;;;;;23.30;99.90;;;;;;5093566;28;20346;-71
2023/09/10 03:56:08;;;;;;;;;;;23.30;99.90;;;;;;5093409;28;19956;-71
2023/09/10 03:58:34;;;;;;;;;;;23.30;99.90;;;;;;5093928;28;19969;-71
2023/09/10 04:01:00;;;;;;;;;;;23.20;99.90;;;;;;5093340;28;19912;-71
2023/09/10 04:03:26;;;;;;;;;;;23.20;99.90;;;;;;5093415;28;20387;-70
2023/09/10 04:05:52;;;;;;;;;;;23.10;99.90;;;;;;5093441;28;19955;-71
2023/09/10 04:08:18;;;;;;;;;;;23.20;99.90;;;;;;5093423;28;19908;-70
2023/09/10 04:10:44;;;;;;;;;;;23.20;99.90;;;;;;5075490;28;19908;-70
2023/09/10 04:13:10;;;;;;;;;;;23.20;99.90;;;;;;5093345;28;19973;-71
2023/09/10 04:15:35;;;;;;;;;;;23.30;99.90;;;;;;5093172;28;19977;-71
2023/09/10 04:18:03;;;;;;;;;;;23.30;99.90;;;;;;5075143;28;19908;-71
2023/09/10 04:20:29;;;;;;;;;;;23.20;99.90;;;;;;5093395;28;19908;-71
2023/09/10 04:22:55;;;;;;;;;;;23.20;99.90;;;;;;5093896;28;19915;-71
2023/09/10 04:25:21;;;;;;;;;;;23.30;99.90;;;;;;5079022;28;19915;-71
2023/09/10 04:27:46;;;;;;;;;;;23.30;99.90;;;;;;5097350;28;19908;-71
2023/09/10 04:30:12;;;;;;;;;;;23.30;99.90;;;;;;5096908;28;19998;-71
2023/09/10 04:32:38;;;;;;;;;;;23.20;99.90;;;;;;5097542;28;20225;-71
2023/09/10 04:35:07;;;;;;;;;;;23.20;99.90;;;;;;5096967;28;19934;-71
2023/09/10 04:37:34;;;;;;;;;;;23.20;99.90;;;;;;5078501;28;20062;-71
2023/09/10 04:40:01;;;;;;;;;;;23.20;99.90;;;;;;5078703;28;20433;-71
2023/09/10 04:42:27;;;;;;;;;;;23.10;99.90;;;;;;5096820;28;20295;-70
2023/09/10 04:44:52;;;;;;;;;;;23.10;99.90;;;;;;5096611;28;19908;-72
2023/09/10 04:47:18;;;;;;;;;;;23.10;99.90;;;;;;5096730;28;19916;-70
2023/09/10 04:49:44;;;;;;;;;;;23.10;99.90;;;;;;5096899;28;19908;-71
2023/09/10 04:52:10;;;;;;;;;;;23.10;99.90;;;;;;5097223;28;19947;-72
2023/09/10 04:54:35;;;;;;;;;;;23.10;99.90;;;;;;5096690;28;20338;-71
2023/09/10 04:57:01;;;;;;;;;;;23.00;99.90;;;;;;5096529;28;19916;-72
2023/09/10 04:59:27;;;;;;;;;;;23.10;99.90;;;;;;5096830;28;19966;-71
2023/09/10 05:01:53;;;;;;;;;;;23.10;99.90;;;;;;5096968;28;20011;-72
2023/09/10 05:04:18;;;;;;;;;;;23.10;99.90;;;;;;5078222;28;19931;-72
2023/09/10 05:06:44;;;;;;;;;;;23.10;99.90;;;;;;5096606;28;19983;-73
2023/09/10 05:09:10;;;;;;;;;;;23.10;99.90;;;;;;5096568;28;20379;-72
2023/09/10 05:11:36;;;;;;;;;;;23.10;99.90;;;;;;5096317;28;19908;-72
2023/09/10 05:14:02;;;;;;;;;;;23.20;99.90;;;;;;5096228;28;19915;-72
2023/09/10 05:16:27;;;;;;;;;;;23.20;99.90;;;;;;5077827;28;19916;-72
2023/09/10 05:18:53;;;;;;;;;;;23.20;99.90;;;;;;5096151;28;19909;-72
2023/09/10 05:21:20;;;;;;;;;;;23.30;99.90;;;;;;5096127;28;19908;-72
2023/09/10 05:23:45;;;;;;;;;;;23.30;99.90;;;;;;5096082;28;19977;-72
2023/09/10 05:26:11;;;;;;;;;;;23.40;99.90;;;;;;5096038;28;20010;-72
2023/09/10 05:28:37;;;;;;;;;;;23.50;99.90;;;;;;5096512;28;19990;-71
2023/09/10 05:31:04;;;;;;;;;;;23.60;99.90;;;;;;5077486;28;19912;-72
2023/09/10 05:33:30;;;;;;;;;;;23.80;99.90;;;;;;5096006;28;19974;-72
2023/09/10 05:35:56;;;;;;;;;;;24.00;99.90;;;;;;5095483;28;19955;-72
2023/09/10 05:38:22;;;;;;;;;;;24.30;99.90;;;;;;5095522;28;20007;-72
2023/09/10 05:40:48;;;;;;;;;;;24.60;99.90;;;;;;5095759;28;19916;-72
2023/09/10 05:43:13;;;;;;;;;;;25.00;99.90;;;;;;5095666;28;19908;-72
2023/09/10 05:45:39;;;;;;;;;;;25.30;99.90;;;;;;5095418;28;20041;-71
2023/09/10 05:48:05;;;;;;;;;;;25.60;99.90;;;;;;5096127;28;19908;-71
2023/09/10 05:50:31;;;;;;;;;;;26.00;99.90;;;;;;5095579;28;20280;-71
2023/09/10 05:52:57;;;;;;;;;;;26.40;99.90;;;;;;5096053;28;19908;-71
2023/09/10 05:55:24;;;;;;;;;;;26.30;99.90;;;;;;5095405;28;19915;-71
2023/09/10 05:57:51;;;;;;;;;;;27.20;99.90;;;;;;5095937;28;19908;-71
2023/09/10 06:00:17;;;;;;;;;;;28.00;99.90;;;;;;5095201;28;19992;-71
2023/09/10 06:02:42;;;;;;;;;;;28.40;99.90;;;;;;5095343;28;19977;-71
2023/09/10 06:05:08;;;;;;;;;;;28.70;99.90;;;;;;5095525;28;20413;-72
2023/09/10 06:07:34;;;;;;;;;;;29.20;99.90;;;;;;5095478;28;19909;-72
2023/09/10 06:10:00;;;;;;;;;;;29.60;99.90;;;;;;5077005;28;20395;-72
2023/09/10 06:12:26;;;;;;;;;;;30.00;99.90;;;;;;5076901;28;19962;-71
2023/09/10 06:14:51;;;;;;;;;;;29.90;99.90;;;;;;5095090;28;20274;-73
2023/09/10 06:17:17;;;;;;;;;;;30.40;99.90;;;;;;5094982;28;19916;-72
2023/09/10 06:19:43;;;;;;;;;;;30.10;99.90;;;;;;5076850;28;20332;-72
2023/09/10 06:22:09;;;;;;;;;;;29.10;99.90;;;;;;5095469;28;19916;-71
2023/09/10 06:24:34;;;;;;;;;;;28.70;99.90;;;;;;5094912;28;19908;-71
2023/09/10 06:27:00;;;;;;;;;;;28.30;99.90;;;;;;5095079;28;19999;-71
2023/09/10 06:29:26;;;;;;;;;;;28.70;99.90;;;;;;5094725;28;19953;-72
2023/09/10 06:31:52;;;;;;;;;;;29.20;99.90;;;;;;5076556;28;20442;-72
2023/09/10 06:34:18;;;;;;;;;;;29.30;99.90;;;;;;5094932;28;19908;-73
2023/09/10 06:36:43;;;;;;;;;;;29.50;99.90;;;;;;5076379;28;19967;-72
2023/09/10 06:39:09;;;;;;;;;;;30.40;99.90;;;;;;5094354;28;19973;-73
2023/09/10 06:41:35;;;;;;;;;;;29.60;99.90;;;;;;5095084;28;19984;-72
2023/09/10 06:44:01;;;;;;;;;;;28.40;99.90;;;;;;5094684;28;19912;-71
2023/09/10 06:46:27;;;;;;;;;;;28.50;99.90;;;;;;5093340;28;20050;-71
2023/09/10 06:48:53;;;;;;;;;;;28.80;99.90;;;;;;5075997;28;19999;-72
2023/09/10 06:51:19;;;;;;;;;;;29.50;99.90;;;;;;5094330;28;20280;-72
2023/09/10 06:53:45;;;;;;;;;;;29.30;99.90;;;;;;5094500;28;19912;-72
2023/09/10 06:56:10;;;;;;;;;;;29.80;99.90;;;;;;5075987;28;19993;-72
2023/09/10 06:58:36;;;;;;;;;;;29.60;99.90;;;;;;5094266;28;19938;-72
2023/09/10 07:01:06;;;;;;;;;;;29.50;99.90;;;;;;5094153;28;20302;-72
2023/09/10 07:03:33;;;;;;;;;;;30.10;99.90;;;;;;5094393;28;19909;-72
2023/09/10 07:05:59;;;;;;;;;;;30.30;99.90;;;;;;5094106;28;20321;-72
2023/09/10 07:08:25;;;;;;;;;;;30.70;99.90;;;;;;5093990;28;19908;-72
2023/09/10 07:10:51;;;;;;;;;;;31.30;99.90;;;;;;5094197;28;19995;-71
2023/09/10 07:13:17;;;;;;;;;;;31.50;99.90;;;;;;5093937;28;20357;-73
2023/09/10 07:15:42;;;;;;;;;;;31.50;99.90;;;;;;5093680;28;19939;-72
2023/09/10 07:18:08;;;;;;;;;;;32.10;99.90;;;;;;5094190;28;20386;-72
2023/09/10 07:20:34;;;;;;;;;;;32.80;99.90;;;;;;5093772;28;19908;-72
2023/09/10 07:23:00;;;;;;;;;;;32.50;99.90;;;;;;5093705;28;20404;-73
2023/09/10 07:25:26;;;;;;;;;;;32.50;99.90;;;;;;5075637;28;19955;-73
2023/09/10 07:27:51;;;;;;;;;;;32.40;99.90;;;;;;5094224;28;20348;-72
2023/09/10 07:30:17;;;;;;;;;;;32.10;99.90;;;;;;5093529;28;19915;-72
2023/09/10 07:32:44;;;;;;;;;;;30.90;99.90;;;;;;5093710;28;19995;-72
2023/09/10 07:35:10;;;;;;;;;;;30.80;99.90;;;;;;5093881;28;19935;-72
2023/09/10 07:37:36;;;;;;;;;;;30.10;99.90;;;;;;5093245;28;20280;-72
2023/09/10 07:40:02;;;;;;;;;;;30.30;99.90;;;;;;5093715;28;19908;-72
2023/09/10 07:42:27;;;;;;;;;;;30.00;99.90;;;;;;5093285;28;20360;-72
2023/09/10 07:44:53;;;;;;;;;;;30.20;99.90;;;;;;5093366;28;19931;-72
2023/09/10 07:47:20;;;;;;;;;;;29.60;99.90;;;;;;5093479;28;19909;-71
2023/09/10 07:49:46;;;;;;;;;;;29.60;99.90;;;;;;5093432;28;19916;-71
2023/09/10 07:52:11;;;;;;;;;;;29.60;99.90;;;;;;5093378;28;19908;-73
2023/09/10 07:54:37;;;;;;;;;;;29.80;99.90;;;;;;5075216;28;20279;-72
2023/09/10 07:57:03;;;;;;;;;;;30.20;99.90;;;;;;5094511;28;19920;-71
2023/09/10 07:59:29;;;;;;;;;;;29.80;99.90;;;;;;5097523;28;19908;-72
2023/09/10 08:01:55;;;;;;;;;;;30.30;99.90;;;;;;5079410;28;20041;-72
2023/09/10 08:04:21;;;;;;;;;;;30.70;99.90;;;;;;5097593;28;20007;-72
2023/09/10 08:06:46;;;;;;;;;;;30.30;99.90;;;;;;5097499;28;20248;-71
2023/09/10 08:09:12;;;;;;;;;;;30.10;99.90;;;;;;5097549;28;19912;-72
2023/09/10 08:11:38;;;;;;;;;;;29.90;99.90;;;;;;5097712;28;20271;-71
2023/09/10 08:14:04;;;;;;;;;;;30.20;99.90;;;;;;5097398;28;19912;-72
2023/09/10 08:16:30;;;;;;;;;;;30.40;99.90;;;;;;5097204;28;19916;-72
2023/09/10 08:18:55;;;;;;;;;;;30.80;99.90;;;;;;5097641;28;20003;-71
2023/09/10 08:21:21;;;;;;;;;;;30.80;99.90;;;;;;5097444;28;19908;-71
2023/09/10 08:23:47;;;;;;;;;;;31.00;99.90;;;;;;5079055;28;19916;-72
2023/09/10 08:26:13;;;;;;;;;;;31.90;99.90;;;;;;5097592;28;20287;-72
2023/09/10 08:28:39;;;;;;;;;;;32.20;99.90;;;;;;5097125;28;19994;-72
2023/09/10 08:31:05;;;;;;;;;;;32.40;99.90;;;;;;5097099;28;19908;-72
2023/09/10 08:33:31;;;;;;;;;;;32.70;99.90;;;;;;5097029;28;20002;-72
2023/09/10 08:35:57;;;;;;;;;;;32.80;99.90;;;;;;5096909;28;20345;-73
2023/09/10 08:38:22;;;;;;;;;;;33.10;99.90;;;;;;5096630;28;20395;-71
2023/09/10 08:41:03;;;;;;;;;;;33.10;99.90;;;;;;5078485;28;19918;-72
2023/09/10 08:43:39;;;;;;;;;;;33.10;99.90;;;;;;5078569;28;19908;-72
2023/09/10 08:46:08;;;;;;;;;;;33.10;99.90;;;;;;5096565;28;19912;-73
2023/09/10 08:48:36;;;;;;;;;;;33.30;99.90;;;;;;5096651;28;19961;-73
2023/09/10 08:51:02;;;;;;;;;;;33.70;99.90;;;;;;5096669;28;19915;-72
2023/09/10 08:53:28;;;;;;;;;;;33.10;99.90;;;;;;5097059;28;19908;-73
2023/09/10 08:55:55;;;;;;;;;;;33.10;99.90;;;;;;5078225;28;19923;-71
2023/09/10 08:58:21;;;;;;;;;;;32.80;99.90;;;;;;5096511;28;19913;-71
2023/09/10 09:00:49;;;;;;;;;;;33.00;99.90;;;;;;5096220;28;20002;-72
2023/09/10 09:03:16;;;;;;;;;;;33.40;99.90;;;;;;5096956;28;20342;-72
2023/09/10 09:05:42;;;;;;;;;;;33.50;99.90;;;;;;5096382;28;19998;-71
2023/09/10 09:08:15;;;;;;;;;;;33.20;99.90;;;;;;5078087;28;19954;-71
2023/09/10 09:10:41;;;;;;;;;;;32.60;99.90;;;;;;5077673;28;19966;-71
2023/09/10 09:13:09;;;;;;;;;;;32.50;99.90;;;;;;5096244;28;19908;-73
2023/09/10 09:15:37;;;;;;;;;;;32.70;99.90;;;;;;5095963;28;20364;-71
2023/09/10 09:18:03;;;;;;;;;;;32.70;99.90;;;;;;5096414;28;20356;-72
2023/09/10 09:20:30;;;;;;;;;;;32.70;99.90;;;;;;5096066;28;20361;-71
2023/09/10 09:22:58;;;;;;;;;;;32.60;99.90;;;;;;5095980;28;19994;-73
2023/09/10 09:25:24;;;;;;;;;;;32.70;99.90;;;;;;5096064;28;19908;-72
2023/09/10 09:27:50;;;;;;;;;;;32.60;99.90;;;;;;5095848;28;19908;-71
2023/09/10 09:30:16;;;;;;;;;;;32.20;99.90;;;;;;5096007;28;19908;-71
2023/09/10 09:32:44;;;;;;;;;;;32.50;99.90;;;;;;5096019;28;19908;-73
2023/09/10 09:35:10;;;;;;;;;;;32.60;99.90;;;;;;5095683;28;19984;-71
2023/09/10 09:37:36;;;;;;;;;;;32.40;99.90;;;;;;5095363;28;19920;-71
2023/09/10 09:40:03;;;;;;;;;;;32.20;99.90;;;;;;5096033;28;19961;-71
2023/09/10 09:42:29;;;;;;;;;;;32.20;99.90;;;;;;5095552;28;20325;-72
2023/09/10 09:44:57;;;;;;;;;;;32.30;99.90;;;;;;5095300;28;19909;-71
2023/09/10 09:47:23;;;;;;;;;;;32.60;99.90;;;;;;5095726;28;19962;-71
2023/09/10 09:49:49;;;;;;;;;;;32.10;99.90;;;;;;5096249;28;20325;-71
2023/09/10 09:52:18;;;;;;;;;;;31.70;99.90;;;;;;5095736;28;20294;-72
2023/09/10 09:54:47;;;;;;;;;;;31.60;99.90;;;;;;5077285;28;20333;-72
2023/09/10 09:57:13;;;;;;;;;;;31.60;99.90;;;;;;5095129;28;19959;-71
2023/09/10 09:59:39;;;;;;;;;;;31.60;99.90;;;;;;5095757;28;19915;-71
2023/09/10 10:02:10;;;;;;;;;;;31.40;99.90;;;;;;5095072;28;20039;-71
2023/09/10 10:04:39;;;;;;;;;;;30.90;99.90;;;;;;5095830;28;19908;-71
2023/09/10 10:07:04;;;;;;;;;;;30.80;99.90;;;;;;5076850;28;19920;-71
2023/09/10 10:09:37;;;;;;;;;;;30.80;99.90;;;;;;5095355;28;19908;-71
2023/09/10 10:12:04;;;;;;;;;;;31.00;99.90;;;;;;5095069;28;20393;-71
2023/09/10 10:14:33;;;;;;;;;;;31.00;99.90;;;;;;5094951;28;19908;-72
2023/09/10 10:17:00;;;;;;;;;;;30.90;99.90;;;;;;5094804;28;19970;-71
2023/09/10 10:19:30;;;;;;;;;;;30.80;99.90;;;;;;5094908;28;19908;-71
2023/09/10 10:21:56;;;;;;;;;;;31.20;99.90;;;;;;5076674;28;19915;-70
2023/09/10 10:24:23;;;;;;;;;;;31.50;99.90;;;;;;5094644;28;19908;-71
2023/09/10 10:26:51;;;;;;;;;;;31.90;99.90;;;;;;5094698;28;19908;-71
2023/09/10 10:29:22;;;;;;;;;;;31.70;99.90;;;;;;5094744;28;20366;-72
2023/09/10 10:32:01;;;;;;;;;;;31.40;99.90;;;;;;5094546;28;20060;-71
2023/09/10 10:34:30;;;;;;;;;;;31.50;99.90;;;;;;5094933;28;20024;-71
2023/09/10 10:37:12;;;;;;;;;;;31.70;99.90;;;;;;5094486;28;19923;-72
2023/09/10 10:39:42;;;;;;;;;;;31.60;99.90;;;;;;5095065;28;19943;-71
2023/09/10 10:42:12;;;;;;;;;;;31.40;99.90;;;;;;5094424;28;19915;-72
2023/09/10 10:44:39;;;;;;;;;;;31.20;99.90;;;;;;5094764;28;19927;-71
2023/09/10 10:47:13;;;;;;;;;;;31.30;99.90;;;;;;5076159;28;19916;-71
2023/09/10 10:49:52;;;;;;;;;;;31.50;99.90;;;;;;5094446;28;19908;-71
2023/09/10 10:52:20;;;;;;;;;;;31.80;99.90;;;;;;5076173;28;20011;-71
2023/09/10 10:54:47;;;;;;;;;;;31.60;99.90;;;;;;5094355;28;20046;-71
2023/09/10 10:57:13;;;;;;;;;;;31.80;99.90;;;;;;5094711;28;20019;-72
2023/09/10 10:59:40;;;;;;;;;;;31.70;99.90;;;;;;5094225;28;19908;-72
2023/09/10 11:02:22;;;;;;;;;;;31.30;99.90;;;;;;5076076;28;19908;-71
2023/09/10 11:05:00;;;;;;;;;;;31.00;99.90;;;;;;5076017;28;19908;-71
2023/09/10 11:07:29;;;;;;;;;;;30.90;99.90;;;;;;5094113;28;19908;-71
2023/09/10 11:09:57;;;;;;;;;;;31.00;99.90;;;;;;5075583;28;19915;-71
2023/09/10 11:12:23;;;;;;;;;;;31.10;99.90;;;;;;5075568;28;20011;-71
2023/09/10 11:15:03;;;;;;;;;;;31.10;99.90;;;;;;5093924;28;19908;-71
2023/09/10 11:17:32;;;;;;;;;;;31.00;99.90;;;;;;5093747;28;20024;-71
2023/09/10 11:19:59;;;;;;;;;;;30.60;99.90;;;;;;5093926;28;20268;-71
2023/09/10 11:22:25;;;;;;;;;;;30.60;99.90;;;;;;5093660;28;19908;-71
2023/09/10 11:25:07;;;;;;;;;;;30.70;99.90;;;;;;5093872;28;19908;-72
2023/09/10 11:27:34;;;;;;;;;;;30.60;99.90;;;;;;5093812;28;20271;-72
2023/09/10 11:30:03;;;;;;;;;;;30.40;99.90;;;;;;5093548;28;19991;-72
2023/09/10 11:32:29;;;;;;;;;;;30.60;99.90;;;;;;5093564;28;19908;-71
2023/09/10 11:35:14;;;;;;;;;;;30.70;99.90;;;;;;5093687;28;19915;-72
2023/09/10 11:37:41;;;;;;;;;;;30.50;99.90;;;;;;5093374;28;19963;-71
2023/09/10 11:40:08;;;;;;;;;;;30.70;99.90;;;;;;5093874;28;19909;-71
2023/09/10 11:42:35;;;;;;;;;;;30.90;99.90;;;;;;5093630;28;19915;-71
2023/09/10 11:45:01;;;;;;;;;;;30.60;99.90;;;;;;5093420;28;20062;-72
2023/09/10 11:47:27;;;;;;;;;;;30.60;99.90;;;;;;5093545;28;19950;-72
2023/09/10 11:50:05;;;;;;;;;;;30.60;99.90;;;;;;5093575;28;19908;-72
2023/09/10 11:52:31;;;;;;;;;;;30.50;99.90;;;;;;5094102;28;20272;-72
2023/09/10 11:54:57;;;;;;;;;;;30.40;99.90;;;;;;5093558;28;20003;-72
2023/09/10 11:57:23;;;;;;;;;;;30.50;99.90;;;;;;5093999;28;19916;-72
2023/09/10 11:59:50;;;;;;;;;;;30.30;99.90;;;;;;5093461;28;20198;-73
2023/09/10 12:02:16;;;;;;;;;;;30.60;99.90;;;;;;5075115;28;20328;-72
2023/09/10 12:04:42;;;;;;;;;;;30.60;99.90;;;;;;5093448;28;19998;-73
2023/09/10 12:07:08;;;;;;;;;;;30.40;99.90;;;;;;5093392;28;20006;-73
2023/09/10 12:09:34;;;;;;;;;;;30.50;99.90;;;;;;5093651;28;19908;-72
2023/09/10 12:12:05;;;;;;;;;;;30.30;99.90;;;;;;5093333;28;19915;-72
2023/09/10 12:14:32;;;;;;;;;;;30.50;99.90;;;;;;5093467;28;19935;-72
2023/09/10 12:16:58;;;;;;;;;;;30.70;99.90;;;;;;5074718;28;19917;-72
2023/09/10 12:19:24;;;;;;;;;;;30.80;99.90;;;;;;5093293;28;19915;-71
2023/09/10 12:21:50;;;;;;;;;;;30.90;99.90;;;;;;5093812;28;19908;-72
2023/09/10 12:24:16;;;;;;;;;;;31.00;99.90;;;;;;5093259;28;20017;-72
2023/09/10 12:26:43;;;;;;;;;;;31.40;99.90;;;;;;5093358;28;19933;-73
2023/09/10 12:29:09;;;;;;;;;;;31.60;99.90;;;;;;5093361;28;19908;-72
2023/09/10 12:31:35;;;;;;;;;;;31.80;99.90;;;;;;5092966;28;19918;-72
2023/09/10 12:34:02;;;;;;;;;;;32.10;99.90;;;;;;5093625;28;19912;-72
2023/09/10 12:36:28;;;;;;;;;;;32.10;99.90;;;;;;5093318;28;19939;-72
2023/09/10 12:38:54;;;;;;;;;;;32.40;99.90;;;;;;5092787;28;20015;-72
2023/09/10 12:41:20;;;;;;;;;;;32.40;99.90;;;;;;5093504;28;19947;-72
2023/09/10 12:43:46;;;;;;;;;;;32.40;99.90;;;;;;5093263;28;19909;-72
2023/09/10 12:46:12;;;;;;;;;;;32.30;99.90;;;;;;5096707;28;20398;-72
2023/09/10 12:48:38;;;;;;;;;;;32.50;99.90;;;;;;5096763;28;19908;-72
2023/09/10 12:51:04;;;;;;;;;;;32.50;99.90;;;;;;5096721;28;20050;-72
2023/09/10 12:53:30;;;;;;;;;;;32.50;99.90;;;;;;5097374;28;20309;-72
2023/09/10 12:55:55;;;;;;;;;;;32.60;99.90;;;;;;5096838;28;19923;-72
2023/09/10 12:58:22;;;;;;;;;;;32.60;99.90;;;;;;5096514;28;19916;-72
2023/09/10 13:00:55;;;;;;;;;;;32.50;99.90;;;;;;5096258;28;19908;-72
2023/09/10 13:03:21;;;;;;;;;;;32.40;99.90;;;;;;5096743;28;19908;-72
2023/09/10 13:05:47;;;;;;;;;;;32.20;99.90;;;;;;5096444;28;19912;-73
2023/09/10 13:08:12;;;;;;;;;;;32.20;99.90;;;;;;5096341;28;19908;-72
2023/09/10 13:10:39;;;;;;;;;;;31.90;99.90;;;;;;5096212;28;19912;-72
2023/09/10 13:13:07;;;;;;;;;;;31.90;99.90;;;;;;5096681;28;20018;-72
2023/09/10 13:15:33;;;;;;;;;;;31.50;99.90;;;;;;5077678;28;20279;-72
2023/09/10 13:17:59;;;;;;;;;;;31.40;99.90;;;;;;5096628;28;19915;-72
2023/09/10 13:20:26;;;;;;;;;;;31.30;99.90;;;;;;5096317;28;20010;-72
2023/09/10 13:22:51;;;;;;;;;;;31.30;99.90;;;;;;5096117;28;20280;-72
2023/09/10 13:25:18;;;;;;;;;;;31.40;99.90;;;;;;5096125;28;19915;-73
2023/09/10 13:27:44;;;;;;;;;;;31.40;99.90;;;;;;5095912;28;20365;-72
2023/09/10 13:30:11;;;;;;;;;;;31.50;99.90;;;;;;5095729;28;19908;-72
2023/09/10 13:32:37;;;;;;;;;;;31.50;99.90;;;;;;5095617;28;19908;-72
2023/09/10 13:35:03;;;;;;;;;;;31.70;99.90;;;;;;5095680;28;19995;-72
2023/09/10 13:37:29;;;;;;;;;;;31.80;99.90;;;;;;5095841;28;19924;-72
2023/09/10 13:39:55;;;;;;;;;;;31.60;99.90;;;;;;5096233;28;19931;-72
2023/09/10 13:42:21;;;;;;;;;;;31.70;99.90;;;;;;5095732;28;19995;-72
2023/09/10 13:44:47;;;;;;;;;;;31.80;99.90;;;;;;5095686;28;19943;-73
2023/09/10 13:47:13;;;;;;;;;;;31.80;99.90;;;;;;5095566;28;19912;-72
2023/09/10 13:49:38;;;;;;;;;;;31.40;99.90;;;;;;5096178;28;19908;-71
2023/09/10 13:52:04;;;;;;;;;;;31.30;99.90;;;;;;5095582;28;20272;-71
2023/09/10 13:54:30;;;;;;;;;;;31.10;99.90;;;;;;5095426;28;20318;-70
2023/09/10 13:56:56;;;;;;;;;;;30.90;99.90;;;;;;5076647;28;19923;-71
2023/09/10 13:59:22;;;;;;;;;;;31.10;99.90;;;;;;5095794;28;19912;-71
2023/09/10 14:01:47;;;;;;;;;;;31.20;99.90;;;;;;5077030;28;19908;-71
2023/09/10 14:04:13;;;;;;;;;;;31.20;99.90;;;;;;5095491;28;19908;-71
2023/09/10 14:06:39;;;;;;;;;;;31.00;99.90;;;;;;5095090;28;19968;-71
2023/09/10 14:09:05;;;;;;;;;;;31.00;99.90;;;;;;5095199;28;20024;-71
2023/09/10 14:11:31;;;;;;;;;;;30.90;99.90;;;;;;5095066;28;19908;-71
2023/09/10 14:13:57;;;;;;;;;;;31.10;99.90;;;;;;5095325;28;19915;-71